Time,TemperatureF,DewpointF,PressureIn,WindDirection,WindDirectionDegrees,WindSpeedMPH,WindSpeedGustMPH,Humidity,HourlyPrecipIn,Conditions,Clouds,dailyrainin,SoftwareType,DateUTC
2013-01-08 00:00:00,37.2,36.4,30.19,ESE,123,0.0,0.0,97,0.00,,,0.00,WeatherCatV1.11B39,2013-01-08 08:00:00,
2013-01-08 00:05:00,37.4,36.6,30.18,ESE,122,0.0,0.0,97,0.00,,,0.00,WeatherCatV1.11B39,2013-01-08 08:05:00,
2013-01-08 00:10:00,37.5,36.7,30.18,ESE,122,0.0,0.0,97,0.00,,,0.00,WeatherCatV1.11B39,2013-01-08 08:10:00,
2013-01-08 00:15:00,37.6,36.8,30.18,ESE,123,0.0,0.0,97,0.00,,,0.00,WeatherCatV1.11B39,2013-01-08 08:15:00,
2013-01-08 00:20:00,37.5,36.7,30.18,ESE,123,0.0,0.0,97,0.00,,,0.00,WeatherCatV1.11B39,2013-01-08 08:20:00,
2013-01-08 00:25:00,37.4,36.4,30.18,ESE,123,0.0,0.0,96,0.00,,,0.00,WeatherCatV1.11B39,2013-01-08 08:25:00,
2013-01-08 00:30:00,37.4,36.6,30.18,ESE,123,0.0,0.0,97,0.00,,,0.00,WeatherCatV1.11B39,2013-01-08 08:30:00,
2013-01-08 00:35:00,37.4,36.4,30.18,ESE,123,0.0,0.0,96,0.00,,,0.00,WeatherCatV1.11B39,2013-01-08 08:35:00,
2013-01-08 00:40:00,37.2,36.2,30.18,ESE,122,0.0,0.0,96,0.00,,,0.00,WeatherCatV1.11B39,2013-01-08 08:40:00,
2013-01-08 00:45:00,37.0,36.0,30.18,ESE,122,0.0,0.0,96,0.00,,,0.00,WeatherCatV1.11B39,2013-01-08 08:45:00,
2013-01-08 00:50:00,36.9,35.9,30.18,ESE,123,0.0,0.0,96,0.00,,,0.00,WeatherCatV1.11B39,2013-01-08 08:50:00,
2013-01-08 00:55:00,36.9,35.9,30.18,ESE,123,0.0,0.0,96,0.00,,,0.00,WeatherCatV1.11B39,2013-01-08 08:55:00,
2013-01-08 01:02:00,36.7,35.7,30.18,ESE,122,0.0,0.0,96,0.00,,,0.00,WeatherCatV1.11B39,2013-01-08 09:02:00,
2013-01-08 01:07:00,36.6,35.6,30.18,ESE,123,0.0,0.0,96,0.00,,,0.00,WeatherCatV1.11B39,2013-01-08 09:07:00,
2013-01-08 01:12:00,36.4,35.4,30.18,ESE,123,0.0,0.0,96,0.00,,,0.00,WeatherCatV1.11B39,2013-01-08 09:12:00,
2013-01-08 01:17:00,36.3,35.3,30.18,ESE,123,0.0,0.0,96,0.00,,,0.00,WeatherCatV1.11B39,2013-01-08 09:17:00,
2013-01-08 01:22:00,36.2,35.2,30.18,ESE,123,0.0,0.0,96,0.00,,,0.00,WeatherCatV1.11B39,2013-01-08 09:22:00,
2013-01-08 01:27:00,36.1,35.1,30.18,ESE,123,0.0,0.0,96,0.00,,,0.00,WeatherCatV1.11B39,2013-01-08 09:27:00,
2013-01-08 01:32:00,35.9,34.9,30.18,ESE,123,0.0,0.0,96,0.00,,,0.00,WeatherCatV1.11B39,2013-01-08 09:32:00,
2013-01-08 01:37:00,35.9,34.9,30.18,ESE,122,0.0,0.0,96,0.00,,,0.00,WeatherCatV1.11B39,2013-01-08 09:37:00,
2013-01-08 01:42:00,35.7,34.7,30.18,ESE,123,0.0,0.0,96,0.00,,,0.00,WeatherCatV1.11B39,2013-01-08 09:42:00,
2013-01-08 01:47:00,35.6,34.6,30.18,ESE,123,0.0,0.0,96,0.00,,,0.00,WeatherCatV1.11B39,2013-01-08 09:47:00,
2013-01-08 01:52:00,35.5,34.5,30.19,ESE,122,0.0,0.0,96,0.00,,,0.00,WeatherCatV1.11B39,2013-01-08 09:52:00,
2013-01-08 01:57:00,35.5,34.5,30.19,ESE,123,0.0,0.0,96,0.00,,,0.00,WeatherCatV1.11B39,2013-01-08 09:57:00,
2013-01-08 02:02:00,35.4,34.4,30.19,ESE,123,0.0,0.0,96,0.00,,,0.00,WeatherCatV1.11B39,2013-01-08 10:02:00,
2013-01-08 02:07:00,35.2,34.2,30.19,ESE,123,0.0,0.0,96,0.00,,,0.00,WeatherCatV1.11B39,2013-01-08 10:07:00,
2013-01-08 02:12:00,35.0,34.0,30.19,ESE,122,0.0,0.0,96,0.00,,,0.00,WeatherCatV1.11B39,2013-01-08 10:12:00,
2013-01-08 02:17:00,34.8,33.8,30.19,ESE,123,0.0,0.0,96,0.00,,,0.00,WeatherCatV1.11B39,2013-01-08 10:17:00,
2013-01-08 02:22:00,34.7,33.7,30.20,ESE,123,0.0,0.0,96,0.00,,,0.00,WeatherCatV1.11B39,2013-01-08 10:22:00,
2013-01-08 02:27:00,34.5,33.5,30.20,ESE,123,0.0,0.0,96,0.00,,,0.00,WeatherCatV1.11B39,2013-01-08 10:27:00,
2013-01-08 02:32:00,34.4,33.4,30.20,ESE,122,0.0,0.0,96,0.00,,,0.00,WeatherCatV1.11B39,2013-01-08 10:32:00,
2013-01-08 02:37:00,34.1,33.1,30.20,ESE,123,0.0,0.0,96,0.00,,,0.00,WeatherCatV1.11B39,2013-01-08 10:37:00,
2013-01-08 02:42:00,34.0,33.0,30.20,ESE,123,0.0,0.0,96,0.00,,,0.00,WeatherCatV1.11B39,2013-01-08 10:42:00,
2013-01-08 02:47:00,33.9,32.9,30.20,ESE,122,0.0,0.0,96,0.00,,,0.00,WeatherCatV1.11B39,2013-01-08 10:47:00,
2013-01-08 02:52:00,33.7,32.7,30.20,ESE,122,0.0,0.0,96,0.00,,,0.00,WeatherCatV1.11B39,2013-01-08 10:52:00,
2013-01-08 02:57:00,33.5,32.5,30.19,ESE,123,0.0,0.0,96,0.00,,,0.00,WeatherCatV1.11B39,2013-01-08 10:57:00,
2013-01-08 03:02:00,33.4,32.4,30.19,ESE,123,0.0,0.0,96,0.00,,,0.00,WeatherCatV1.11B39,2013-01-08 11:02:00,
2013-01-08 03:07:00,33.3,32.3,30.19,ESE,123,0.0,0.0,96,0.00,,,0.00,WeatherCatV1.11B39,2013-01-08 11:07:00,
2013-01-08 03:12:00,33.1,32.1,30.18,ESE,122,0.0,0.0,96,0.00,,,0.00,WeatherCatV1.11B39,2013-01-08 11:12:00,
2013-01-08 03:17:00,33.0,32.0,30.19,ESE,123,0.0,0.0,96,0.00,,,0.00,WeatherCatV1.11B39,2013-01-08 11:17:00,
2013-01-08 03:22:00,32.9,31.9,30.18,ESE,122,0.0,0.0,96,0.00,,,0.00,WeatherCatV1.11B39,2013-01-08 11:22:00,
2013-01-08 03:27:00,32.8,31.8,30.18,ESE,122,0.0,0.0,96,0.00,,,0.00,WeatherCatV1.11B39,2013-01-08 11:27:00,
2013-01-08 03:32:00,32.6,31.6,30.18,ESE,123,0.0,0.0,96,0.00,,,0.00,WeatherCatV1.11B39,2013-01-08 11:32:00,
2013-01-08 03:37:00,32.4,31.4,30.18,ESE,123,0.0,0.0,96,0.00,,,0.00,WeatherCatV1.11B39,2013-01-08 11:37:00,
2013-01-08 03:42:00,32.3,31.3,30.18,ESE,122,0.0,0.0,96,0.00,,,0.00,WeatherCatV1.11B39,2013-01-08 11:42:00,
2013-01-08 03:47:00,32.2,31.2,30.18,ESE,122,0.0,0.0,96,0.00,,,0.00,WeatherCatV1.11B39,2013-01-08 11:47:00,
2013-01-08 03:52:00,32.1,31.1,30.18,ESE,123,0.0,0.0,96,0.00,,,0.00,WeatherCatV1.11B39,2013-01-08 11:52:00,
2013-01-08 03:57:00,32.0,31.0,30.18,ESE,122,0.0,0.0,96,0.00,,,0.00,WeatherCatV1.11B39,2013-01-08 11:57:00,
2013-01-08 04:02:00,31.9,30.9,30.18,ESE,122,0.0,0.0,96,0.00,,,0.00,WeatherCatV1.11B39,2013-01-08 12:02:00,
2013-01-08 04:07:00,31.8,30.8,30.18,ESE,123,0.0,0.0,96,0.00,,,0.00,WeatherCatV1.11B39,2013-01-08 12:07:00,
2013-01-08 04:12:00,31.8,30.8,30.18,ESE,123,0.0,0.0,96,0.00,,,0.00,WeatherCatV1.11B39,2013-01-08 12:12:00,
2013-01-08 04:17:00,31.8,30.8,30.18,ESE,123,0.0,0.0,96,0.00,,,0.00,WeatherCatV1.11B39,2013-01-08 12:17:00,
2013-01-08 04:22:00,31.8,30.8,30.18,ESE,123,0.0,0.0,96,0.00,,,0.00,WeatherCatV1.11B39,2013-01-08 12:22:00,
2013-01-08 04:27:00,31.9,30.9,30.18,ESE,123,0.0,0.0,96,0.00,,,0.00,WeatherCatV1.11B39,2013-01-08 12:27:00,
2013-01-08 04:32:00,32.0,31.0,30.18,ESE,122,0.0,0.0,96,0.00,,,0.00,WeatherCatV1.11B39,2013-01-08 12:32:00,
2013-01-08 04:37:00,32.0,31.0,30.18,ESE,122,0.0,0.0,96,0.00,,,0.00,WeatherCatV1.11B39,2013-01-08 12:37:00,
2013-01-08 04:42:00,32.0,31.0,30.18,ESE,123,0.0,0.0,96,0.00,,,0.00,WeatherCatV1.11B39,2013-01-08 12:42:00,
2013-01-08 04:47:00,32.0,31.0,30.18,ESE,123,0.0,0.0,96,0.00,,,0.00,WeatherCatV1.11B39,2013-01-08 12:47:00,
2013-01-08 04:52:00,31.9,30.9,30.18,ESE,123,0.0,0.0,96,0.00,,,0.00,WeatherCatV1.11B39,2013-01-08 12:52:00,
2013-01-08 04:57:00,31.7,30.7,30.18,ESE,123,0.0,0.0,96,0.00,,,0.00,WeatherCatV1.11B39,2013-01-08 12:57:00,
2013-01-08 05:02:00,31.6,30.6,30.19,ESE,123,0.0,0.0,96,0.00,,,0.00,WeatherCatV1.11B39,2013-01-08 13:02:00,
2013-01-08 05:07:00,31.7,30.7,30.19,ESE,122,0.0,0.0,96,0.00,,,0.00,WeatherCatV1.11B39,2013-01-08 13:07:00,
2013-01-08 05:12:00,31.7,30.7,30.19,ESE,122,0.0,0.0,96,0.00,,,0.00,WeatherCatV1.11B39,2013-01-08 13:12:00,
2013-01-08 05:17:00,31.6,30.6,30.19,ESE,123,0.0,0.0,96,0.00,,,0.00,WeatherCatV1.11B39,2013-01-08 13:17:00,
2013-01-08 05:22:00,31.5,30.5,30.19,ESE,123,0.0,0.0,96,0.00,,,0.00,WeatherCatV1.11B39,2013-01-08 13:22:00,
2013-01-08 05:27:00,31.4,30.4,30.19,ESE,123,0.0,0.0,96,0.00,,,0.00,WeatherCatV1.11B39,2013-01-08 13:27:00,
2013-01-08 05:32:00,31.2,30.2,30.18,ESE,123,0.0,0.0,96,0.00,,,0.00,WeatherCatV1.11B39,2013-01-08 13:32:00,
2013-01-08 05:37:00,31.1,30.1,30.19,ESE,123,0.0,0.0,96,0.00,,,0.00,WeatherCatV1.11B39,2013-01-08 13:37:00,
2013-01-08 05:42:00,31.0,30.0,30.19,ESE,122,0.0,0.0,96,0.00,,,0.00,WeatherCatV1.11B39,2013-01-08 13:42:00,
2013-01-08 05:47:00,31.0,30.0,30.19,ESE,122,0.0,0.0,96,0.00,,,0.00,WeatherCatV1.11B39,2013-01-08 13:47:00,
2013-01-08 05:52:00,30.9,30.2,30.19,ESE,123,0.0,0.0,97,0.00,,,0.00,WeatherCatV1.11B39,2013-01-08 13:52:00,
2013-01-08 05:57:00,30.8,30.1,30.19,ESE,123,0.0,0.0,97,0.00,,,0.00,WeatherCatV1.11B39,2013-01-08 13:57:00,
2013-01-08 06:02:00,30.8,30.1,30.19,ESE,122,0.0,0.0,97,0.00,,,0.00,WeatherCatV1.11B39,2013-01-08 14:02:00,
2013-01-08 06:07:00,30.7,30.0,30.19,ESE,122,0.0,0.0,97,0.00,,,0.00,WeatherCatV1.11B39,2013-01-08 14:07:00,
2013-01-08 06:12:00,30.7,29.7,30.19,ESE,123,0.0,0.0,96,0.00,,,0.00,WeatherCatV1.11B39,2013-01-08 14:12:00,
2013-01-08 06:17:00,30.6,29.6,30.19,ESE,122,0.0,0.0,96,0.00,,,0.00,WeatherCatV1.11B39,2013-01-08 14:17:00,
2013-01-08 06:22:00,30.6,29.6,30.19,ESE,122,0.0,0.0,96,0.00,,,0.00,WeatherCatV1.11B39,2013-01-08 14:22:00,
2013-01-08 06:27:00,30.5,29.8,30.19,ESE,123,0.0,0.0,97,0.00,,,0.00,WeatherCatV1.11B39,2013-01-08 14:27:00,
2013-01-08 06:32:00,30.4,29.7,30.20,ESE,123,0.0,0.0,97,0.00,,,0.00,WeatherCatV1.11B39,2013-01-08 14:32:00,
2013-01-08 06:37:00,30.4,29.7,30.19,ESE,123,0.0,0.0,97,0.00,,,0.00,WeatherCatV1.11B39,2013-01-08 14:37:00,
2013-01-08 06:42:00,30.6,29.9,30.19,ESE,122,0.0,0.0,97,0.00,,,0.00,WeatherCatV1.11B39,2013-01-08 14:42:00,
2013-01-08 06:47:00,30.7,30.0,30.19,ESE,123,0.0,0.0,97,0.00,,,0.00,WeatherCatV1.11B39,2013-01-08 14:47:00,
2013-01-08 06:52:00,30.7,30.0,30.20,ESE,123,0.0,0.0,97,0.00,,,0.00,WeatherCatV1.11B39,2013-01-08 14:52:00,
2013-01-08 06:57:00,30.6,29.9,30.20,ESE,123,0.0,0.0,97,0.00,,,0.00,WeatherCatV1.11B39,2013-01-08 14:57:00,
2013-01-08 07:02:00,30.6,29.9,30.20,ESE,123,0.0,0.0,97,0.00,,,0.00,WeatherCatV1.11B39,2013-01-08 15:02:00,
2013-01-08 07:07:00,30.6,29.9,30.20,ESE,123,0.0,0.0,97,0.00,,,0.00,WeatherCatV1.11B39,2013-01-08 15:07:00,
2013-01-08 07:12:00,30.5,29.8,30.20,ESE,122,0.0,0.0,97,0.00,,,0.00,WeatherCatV1.11B39,2013-01-08 15:12:00,
2013-01-08 07:17:00,30.4,29.7,30.20,ESE,122,0.0,0.0,97,0.00,,,0.00,WeatherCatV1.11B39,2013-01-08 15:17:00,
2013-01-08 07:22:00,30.3,29.6,30.20,ESE,123,0.0,0.0,97,0.00,,,0.00,WeatherCatV1.11B39,2013-01-08 15:22:00,
2013-01-08 07:27:00,30.3,29.6,30.21,ESE,123,0.0,0.0,97,0.00,,,0.00,WeatherCatV1.11B39,2013-01-08 15:27:00,
2013-01-08 07:32:00,30.3,29.6,30.21,ESE,122,0.0,0.0,97,0.00,,,0.00,WeatherCatV1.11B39,2013-01-08 15:32:00,
2013-01-08 07:37:00,30.4,29.7,30.21,ESE,123,0.0,0.0,97,0.00,,,0.00,WeatherCatV1.11B39,2013-01-08 15:37:00,
2013-01-08 07:38:00,30.5,29.8,30.21,ESE,123,0.0,0.0,97,0.00,,,0.00,WeatherCatV1.11B39,2013-01-08 15:38:00,
2013-01-08 07:43:00,30.6,29.9,30.21,ESE,123,0.0,0.0,97,0.00,,,0.00,WeatherCatV1.11B39,2013-01-08 15:43:00,
2013-01-08 07:48:00,30.7,30.0,30.21,ESE,122,0.0,0.0,97,0.00,,,0.00,WeatherCatV1.11B39,2013-01-08 15:48:00,
2013-01-08 07:53:00,30.7,30.0,30.21,ESE,123,0.0,0.0,97,0.00,,,0.00,WeatherCatV1.11B39,2013-01-08 15:53:00,
2013-01-08 07:58:00,30.8,30.1,30.21,ESE,123,0.0,0.0,97,0.00,,,0.00,WeatherCatV1.11B39,2013-01-08 15:58:00,
2013-01-08 08:03:00,30.9,30.2,30.21,ESE,122,0.0,0.0,97,0.00,,,0.00,WeatherCatV1.11B39,2013-01-08 16:03:00,
2013-01-08 08:08:00,31.1,30.4,30.21,ESE,123,0.0,0.0,97,0.00,,,0.00,WeatherCatV1.11B39,2013-01-08 16:08:00,
2013-01-08 08:13:00,31.3,30.5,30.21,ESE,122,0.0,0.0,97,0.00,,,0.00,WeatherCatV1.11B39,2013-01-08 16:13:00,
2013-01-08 08:18:00,31.5,31.0,30.21,ESE,123,0.0,0.0,98,0.00,,,0.00,WeatherCatV1.11B39,2013-01-08 16:18:00,
2013-01-08 08:23:00,31.7,31.2,30.21,ESE,123,0.0,0.0,98,0.00,,,0.00,WeatherCatV1.11B39,2013-01-08 16:23:00,
2013-01-08 08:28:00,32.0,31.5,30.21,ESE,123,0.0,0.0,98,0.00,,,0.00,WeatherCatV1.11B39,2013-01-08 16:28:00,
2013-01-08 08:33:00,32.2,31.7,30.21,ESE,123,0.0,0.0,98,0.00,,,0.00,WeatherCatV1.11B39,2013-01-08 16:33:00,
2013-01-08 08:38:00,32.5,32.0,30.21,ESE,122,0.0,0.0,98,0.00,,,0.00,WeatherCatV1.11B39,2013-01-08 16:38:00,
2013-01-08 08:43:00,32.7,32.2,30.22,ESE,123,0.0,0.0,98,0.00,,,0.00,WeatherCatV1.11B39,2013-01-08 16:43:00,
2013-01-08 08:48:00,33.0,32.5,30.22,ESE,123,0.0,0.0,98,0.00,,,0.00,WeatherCatV1.11B39,2013-01-08 16:48:00,
2013-01-08 08:53:00,33.3,32.8,30.23,ESE,123,0.0,0.0,98,0.00,,,0.00,WeatherCatV1.11B39,2013-01-08 16:53:00,
2013-01-08 08:58:00,33.6,33.1,30.23,ESE,123,0.0,0.0,98,0.00,,,0.00,WeatherCatV1.11B39,2013-01-08 16:58:00,
2013-01-08 09:03:00,33.9,33.4,30.23,ESE,122,0.0,0.0,98,0.00,,,0.00,WeatherCatV1.11B39,2013-01-08 17:03:00,
2013-01-08 09:08:00,34.4,33.9,30.23,ESE,122,0.0,0.0,98,0.00,,,0.00,WeatherCatV1.11B39,2013-01-08 17:08:00,
2013-01-08 09:13:00,34.8,34.3,30.23,ESE,123,0.0,0.0,98,0.00,,,0.00,WeatherCatV1.11B39,2013-01-08 17:13:00,
2013-01-08 09:18:00,35.1,34.6,30.23,ESE,122,0.0,0.0,98,0.00,,,0.00,WeatherCatV1.11B39,2013-01-08 17:18:00,
2013-01-08 09:23:00,35.5,35.0,30.24,ESE,123,0.0,0.0,98,0.00,,,0.00,WeatherCatV1.11B39,2013-01-08 17:23:00,
2013-01-08 09:28:00,36.1,35.6,30.24,ESE,123,0.0,0.0,98,0.00,,,0.00,WeatherCatV1.11B39,2013-01-08 17:28:00,
2013-01-08 09:33:00,36.7,36.2,30.24,ESE,123,0.0,0.0,98,0.00,,,0.00,WeatherCatV1.11B39,2013-01-08 17:33:00,
2013-01-08 09:38:00,37.1,36.8,30.24,ESE,123,0.0,0.0,99,0.00,,,0.00,WeatherCatV1.11B39,2013-01-08 17:38:00,
2013-01-08 09:43:00,37.5,37.2,30.25,ESE,122,0.0,0.0,99,0.00,,,0.00,WeatherCatV1.11B39,2013-01-08 17:43:00,
2013-01-08 09:48:00,38.3,38.0,30.24,ESE,123,0.0,0.0,99,0.00,,,0.00,WeatherCatV1.11B39,2013-01-08 17:48:00,
2013-01-08 09:53:00,38.6,38.3,30.24,ESE,123,0.0,0.0,99,0.00,,,0.00,WeatherCatV1.11B39,2013-01-08 17:53:00,
2013-01-08 09:58:00,38.8,38.5,30.25,ESE,122,0.0,0.0,99,0.00,,,0.00,WeatherCatV1.11B39,2013-01-08 17:58:00,
2013-01-08 10:03:00,38.9,38.6,30.25,ESE,123,0.0,0.0,99,0.00,,,0.00,WeatherCatV1.11B39,2013-01-08 18:03:00,
2013-01-08 10:08:00,39.1,38.8,30.24,ESE,123,0.0,0.0,99,0.00,,,0.00,WeatherCatV1.11B39,2013-01-08 18:08:00,
2013-01-08 10:13:00,39.4,39.1,30.25,ESE,122,0.0,0.0,99,0.00,,,0.00,WeatherCatV1.11B39,2013-01-08 18:13:00,
2013-01-08 10:18:00,39.8,39.5,30.25,ESE,123,0.0,0.0,99,0.00,,,0.00,WeatherCatV1.11B39,2013-01-08 18:18:00,
2013-01-08 10:23:00,40.4,40.1,30.24,ESE,123,0.0,0.0,99,0.00,,,0.00,WeatherCatV1.11B39,2013-01-08 18:23:00,
2013-01-08 10:28:00,40.6,40.3,30.24,ESE,123,0.0,0.0,99,0.00,,,0.00,WeatherCatV1.11B39,2013-01-08 18:28:00,
2013-01-08 10:33:00,40.9,40.6,30.24,ESE,123,0.0,0.0,99,0.00,,,0.00,WeatherCatV1.11B39,2013-01-08 18:33:00,
2013-01-08 10:38:00,41.3,41.0,30.24,ESE,122,0.0,0.0,99,0.00,,,0.00,WeatherCatV1.11B39,2013-01-08 18:38:00,
2013-01-08 10:43:00,41.7,41.4,30.24,ESE,123,0.0,0.0,99,0.00,,,0.00,WeatherCatV1.11B39,2013-01-08 18:43:00,
2013-01-08 10:48:00,41.8,41.5,30.24,ESE,122,0.0,0.0,99,0.00,,,0.00,WeatherCatV1.11B39,2013-01-08 18:48:00,
2013-01-08 10:53:00,41.9,41.6,30.24,ESE,115,0.0,0.0,99,0.00,,,0.00,WeatherCatV1.11B39,2013-01-08 18:53:00,
2013-01-08 10:58:00,42.2,41.9,30.23,ESE,116,0.0,0.0,99,0.00,,,0.00,WeatherCatV1.11B39,2013-01-08 18:58:00,
2013-01-08 11:03:00,42.7,42.4,30.23,ESE,116,0.0,0.0,99,0.00,,,0.00,WeatherCatV1.11B39,2013-01-08 19:03:00,
2013-01-08 11:08:00,43.1,42.8,30.23,ESE,116,0.0,0.0,99,0.00,,,0.00,WeatherCatV1.11B39,2013-01-08 19:08:00,
2013-01-08 11:13:00,43.3,43.0,30.22,ESE,116,0.0,0.0,99,0.00,,,0.00,WeatherCatV1.11B39,2013-01-08 19:13:00,
2013-01-08 11:18:00,43.8,43.5,30.22,ESE,116,0.0,0.0,99,0.00,,,0.00,WeatherCatV1.11B39,2013-01-08 19:18:00,
2013-01-08 11:23:00,44.5,44.2,30.21,ESE,116,0.0,0.0,99,0.00,,,0.00,WeatherCatV1.11B39,2013-01-08 19:23:00,
2013-01-08 11:28:00,45.1,44.8,30.21,ESE,115,0.0,0.0,99,0.00,,,0.00,WeatherCatV1.11B39,2013-01-08 19:28:00,
2013-01-08 11:33:00,45.5,45.2,30.21,ESE,115,0.0,0.0,99,0.00,,,0.00,WeatherCatV1.11B39,2013-01-08 19:33:00,
2013-01-08 11:38:00,45.8,45.5,30.21,ESE,116,0.0,0.0,99,0.00,,,0.00,WeatherCatV1.11B39,2013-01-08 19:38:00,
2013-01-08 11:43:00,45.9,45.6,30.21,ESE,116,0.0,0.0,99,0.00,,,0.00,WeatherCatV1.11B39,2013-01-08 19:43:00,
2013-01-08 11:48:00,46.1,45.8,30.20,ESE,115,0.0,0.0,99,0.00,,,0.00,WeatherCatV1.11B39,2013-01-08 19:48:00,
2013-01-08 11:53:00,46.4,46.1,30.20,ESE,116,0.0,0.0,99,0.00,,,0.00,WeatherCatV1.11B39,2013-01-08 19:53:00,
2013-01-08 11:58:00,46.5,46.2,30.20,ESE,117,0.0,0.0,99,0.00,,,0.00,WeatherCatV1.11B39,2013-01-08 19:58:00,
2013-01-08 12:03:00,46.8,46.5,30.19,ESE,117,0.0,0.0,99,0.00,,,0.00,WeatherCatV1.11B39,2013-01-08 20:03:00,
2013-01-08 12:08:00,47.1,46.8,30.19,ESE,117,0.0,0.0,99,0.00,,,0.00,WeatherCatV1.11B39,2013-01-08 20:08:00,
2013-01-08 12:13:00,47.6,47.3,30.19,SSE,165,0.0,0.0,99,0.00,,,0.00,WeatherCatV1.11B39,2013-01-08 20:13:00,
2013-01-08 12:18:00,48.1,47.6,30.18,North,5,0.0,0.0,98,0.00,,,0.00,WeatherCatV1.11B39,2013-01-08 20:18:00,
2013-01-08 12:24:00,48.3,47.5,30.18,North,0,0.0,0.0,97,0.00,,,0.00,WeatherCatV1.11B39,2013-01-08 20:24:00,
2013-01-08 12:29:00,48.7,47.3,30.18,ENE,61,0.0,0.0,95,0.00,,,0.00,WeatherCatV1.11B39,2013-01-08 20:29:00,
2013-01-08 12:34:00,49.3,47.4,30.18,NE,51,0.0,0.0,93,0.00,,,0.00,WeatherCatV1.11B39,2013-01-08 20:34:00,
2013-01-08 12:39:00,49.7,46.6,30.18,NE,52,0.0,0.0,89,0.00,,,0.00,WeatherCatV1.11B39,2013-01-08 20:39:00,
2013-01-08 12:44:00,50.3,46.3,30.18,NE,55,0.0,0.0,86,0.00,,,0.00,WeatherCatV1.11B39,2013-01-08 20:44:00,
2013-01-08 12:49:00,50.8,45.5,30.18,NNE,30,0.0,0.0,82,0.00,,,0.00,WeatherCatV1.11B39,2013-01-08 20:49:00,
2013-01-08 12:54:00,51.2,44.9,30.17,ENE,71,0.0,0.0,79,0.00,,,0.00,WeatherCatV1.11B39,2013-01-08 20:54:00,
2013-01-08 12:59:00,51.5,44.9,30.17,NE,38,0.0,0.0,78,0.00,,,0.00,WeatherCatV1.11B39,2013-01-08 20:59:00,
2013-01-08 13:04:00,51.9,44.9,30.18,NE,34,0.0,0.0,77,0.00,,,0.00,WeatherCatV1.11B39,2013-01-08 21:04:00,
2013-01-08 13:09:00,52.4,45.1,30.18,NE,35,0.0,0.0,76,0.00,,,0.00,WeatherCatV1.11B39,2013-01-08 21:09:00,
2013-01-08 13:14:00,52.9,45.9,30.17,NW,322,0.0,0.0,77,0.00,,,0.00,WeatherCatV1.11B39,2013-01-08 21:14:00,
2013-01-08 13:19:00,53.7,46.3,30.17,NW,322,0.0,0.0,76,0.00,,,0.00,WeatherCatV1.11B39,2013-01-08 21:19:00,
2013-01-08 13:24:00,54.2,46.1,30.17,NW,322,0.0,0.0,74,0.00,,,0.00,WeatherCatV1.11B39,2013-01-08 21:24:00,
2013-01-08 13:29:00,54.4,45.9,30.17,ENE,78,0.0,0.0,73,0.00,,,0.00,WeatherCatV1.11B39,2013-01-08 21:29:00,
2013-01-08 13:34:00,54.4,45.6,30.16,ESE,105,0.0,0.0,72,0.00,,,0.00,WeatherCatV1.11B39,2013-01-08 21:34:00,
2013-01-08 13:39:00,54.7,45.9,30.16,ESE,105,0.0,0.0,72,0.00,,,0.00,WeatherCatV1.11B39,2013-01-08 21:39:00,
2013-01-08 13:44:00,55.3,46.1,30.16,ESE,105,0.0,0.0,71,0.00,,,0.00,WeatherCatV1.11B39,2013-01-08 21:44:00,
2013-01-08 13:49:00,55.8,46.5,30.16,ESE,105,0.0,0.0,71,0.00,,,0.00,WeatherCatV1.11B39,2013-01-08 21:49:00,
2013-01-08 13:54:00,56.1,46.1,30.16,WSW,238,0.0,0.0,69,0.00,,,0.00,WeatherCatV1.11B39,2013-01-08 21:54:00,
2013-01-08 13:59:00,56.1,45.7,30.16,SW,229,0.0,0.0,68,0.00,,,0.00,WeatherCatV1.11B39,2013-01-08 21:59:00,
2013-01-08 14:04:00,56.1,45.7,30.16,SW,229,0.0,0.0,68,0.00,,,0.00,WeatherCatV1.11B39,2013-01-08 22:04:00,
2013-01-08 14:09:00,56.3,46.3,30.16,SW,229,0.0,0.0,69,0.00,,,0.00,WeatherCatV1.11B39,2013-01-08 22:09:00,
2013-01-08 14:14:00,56.4,46.4,30.16,SW,227,0.0,0.0,69,0.00,,,0.00,WeatherCatV1.11B39,2013-01-08 22:14:00,
2013-01-08 14:19:00,56.7,46.6,30.16,SW,227,0.0,0.0,69,0.00,,,0.00,WeatherCatV1.11B39,2013-01-08 22:19:00,
2013-01-08 14:24:00,56.9,46.4,30.16,SW,226,0.0,0.0,68,0.00,,,0.00,WeatherCatV1.11B39,2013-01-08 22:24:00,
2013-01-08 14:29:00,57.0,46.2,30.16,SW,226,0.0,0.0,67,0.00,,,0.00,WeatherCatV1.11B39,2013-01-08 22:29:00,
2013-01-08 14:34:00,56.6,46.2,30.16,ESE,108,0.0,0.0,68,0.00,,,0.00,WeatherCatV1.11B39,2013-01-08 22:34:00,
2013-01-08 14:39:00,56.8,46.0,30.16,ESE,113,0.0,0.0,67,0.00,,,0.00,WeatherCatV1.11B39,2013-01-08 22:39:00,
2013-01-08 14:44:00,56.9,46.1,30.17,ESE,113,0.0,0.0,67,0.00,,,0.00,WeatherCatV1.11B39,2013-01-08 22:44:00,
2013-01-08 14:49:00,56.8,46.0,30.16,ESE,113,0.0,0.0,67,0.00,,,0.00,WeatherCatV1.11B39,2013-01-08 22:49:00,
2013-01-08 14:54:00,56.8,46.4,30.17,ESE,115,0.0,0.0,68,0.00,,,0.00,WeatherCatV1.11B39,2013-01-08 22:54:00,
2013-01-08 14:59:00,56.8,46.0,30.17,SSW,213,0.0,0.0,67,0.00,,,0.00,WeatherCatV1.11B39,2013-01-08 22:59:00,
2013-01-08 15:04:00,56.6,45.8,30.17,SW,233,0.0,0.0,67,0.00,,,0.00,WeatherCatV1.11B39,2013-01-08 23:04:00,
2013-01-08 15:09:00,56.5,45.7,30.17,SSW,200,0.0,0.0,67,0.00,,,0.00,WeatherCatV1.11B39,2013-01-08 23:09:00,
2013-01-08 15:14:00,56.5,44.9,30.17,SSW,200,0.0,0.0,65,0.00,,,0.00,WeatherCatV1.11B39,2013-01-08 23:14:00,
2013-01-08 15:19:00,56.5,46.1,30.17,SSW,200,0.0,0.0,68,0.00,,,0.00,WeatherCatV1.11B39,2013-01-08 23:19:00,
2013-01-08 15:24:00,56.1,44.9,30.17,South,175,0.0,0.0,66,0.00,,,0.00,WeatherCatV1.11B39,2013-01-08 23:24:00,
2013-01-08 15:29:00,55.8,45.0,30.17,South,175,0.0,0.0,67,0.00,,,0.00,WeatherCatV1.11B39,2013-01-08 23:29:00,
2013-01-08 15:34:00,55.8,44.6,30.17,South,175,0.0,0.0,66,0.00,,,0.00,WeatherCatV1.11B39,2013-01-08 23:34:00,
2013-01-08 15:39:00,55.8,45.0,30.17,South,175,0.0,0.0,67,0.00,,,0.00,WeatherCatV1.11B39,2013-01-08 23:39:00,
2013-01-08 15:44:00,55.9,45.1,30.17,South,175,0.0,0.0,67,0.00,,,0.00,WeatherCatV1.11B39,2013-01-08 23:44:00,
2013-01-08 15:49:00,55.7,45.3,30.17,SSE,163,0.0,0.0,68,0.00,,,0.00,WeatherCatV1.11B39,2013-01-08 23:49:00,
2013-01-08 15:54:00,55.5,45.5,30.17,SSE,163,0.0,0.0,69,0.00,,,0.00,WeatherCatV1.11B39,2013-01-08 23:54:00,
2013-01-08 15:59:00,55.3,45.7,30.17,SSE,163,0.0,0.0,70,0.00,,,0.00,WeatherCatV1.11B39,2013-01-08 23:59:00,
2013-01-08 16:04:00,55.1,45.5,30.17,SSE,163,0.0,0.0,70,0.00,,,0.00,WeatherCatV1.11B39,2013-01-09 00:04:00,
2013-01-08 16:09:00,54.7,45.1,30.17,SSE,163,0.0,0.0,70,0.00,,,0.00,WeatherCatV1.11B39,2013-01-09 00:09:00,
2013-01-08 16:14:00,54.4,44.8,30.17,SSE,163,0.0,0.0,70,0.00,,,0.00,WeatherCatV1.11B39,2013-01-09 00:14:00,
2013-01-08 16:19:00,54.3,45.5,30.17,SSE,163,0.0,0.0,72,0.00,,,0.00,WeatherCatV1.11B39,2013-01-09 00:19:00,
2013-01-08 16:20:00,54.2,45.0,30.17,SSE,163,0.0,0.0,71,0.00,,,0.00,WeatherCatV1.11B39,2013-01-09 00:20:00,
2013-01-08 16:25:00,54.1,45.3,30.17,SSE,163,0.0,0.0,72,0.00,,,0.00,WeatherCatV1.11B39,2013-01-09 00:25:00,
2013-01-08 16:30:00,53.8,45.4,30.17,SSE,163,0.0,0.0,73,0.00,,,0.00,WeatherCatV1.11B39,2013-01-09 00:30:00,
2013-01-08 16:35:00,53.5,45.4,30.17,SSE,163,0.0,0.0,74,0.00,,,0.00,WeatherCatV1.11B39,2013-01-09 00:35:00,
2013-01-08 16:40:00,53.2,45.5,30.17,SSE,163,0.0,0.0,75,0.00,,,0.00,WeatherCatV1.11B39,2013-01-09 00:40:00,
2013-01-08 16:45:00,53.0,45.3,30.17,SSE,163,0.0,0.0,75,0.00,,,0.00,WeatherCatV1.11B39,2013-01-09 00:45:00,
2013-01-08 16:50:00,52.8,45.1,30.17,SSE,163,0.0,0.0,75,0.00,,,0.00,WeatherCatV1.11B39,2013-01-09 00:50:00,
2013-01-08 16:55:00,52.5,44.5,30.16,SSE,163,0.0,0.0,74,0.00,,,0.00,WeatherCatV1.11B39,2013-01-09 00:55:00,
2013-01-08 17:00:00,52.1,44.1,30.16,SSE,163,0.0,0.0,74,0.00,,,0.00,WeatherCatV1.11B39,2013-01-09 01:00:00,
2013-01-08 17:05:00,51.6,43.9,30.16,SSE,163,0.0,0.0,75,0.00,,,0.00,WeatherCatV1.11B39,2013-01-09 01:05:00,
2013-01-08 17:10:00,51.1,43.4,30.16,SSE,163,0.0,0.0,75,0.00,,,0.00,WeatherCatV1.11B39,2013-01-09 01:10:00,
2013-01-08 17:15:00,50.6,43.0,30.16,SSE,163,0.0,0.0,75,0.00,,,0.00,WeatherCatV1.11B39,2013-01-09 01:15:00,
2013-01-08 17:20:00,50.0,42.7,30.16,SSE,163,0.0,0.0,76,0.00,,,0.00,WeatherCatV1.11B39,2013-01-09 01:20:00,
2013-01-08 17:25:00,49.5,42.6,30.16,SSE,163,0.0,0.0,77,0.00,,,0.00,WeatherCatV1.11B39,2013-01-09 01:25:00,
2013-01-08 17:30:00,49.0,42.4,30.16,SSE,163,0.0,0.0,78,0.00,,,0.00,WeatherCatV1.11B39,2013-01-09 01:30:00,
2013-01-08 17:35:00,48.6,42.1,30.16,SSE,163,0.0,0.0,78,0.00,,,0.00,WeatherCatV1.11B39,2013-01-09 01:35:00,
2013-01-08 17:40:00,48.1,41.6,30.16,SSE,163,0.0,0.0,78,0.00,,,0.00,WeatherCatV1.11B39,2013-01-09 01:40:00,
2013-01-08 17:45:00,47.6,41.4,30.16,SSE,163,0.0,0.0,79,0.00,,,0.00,WeatherCatV1.11B39,2013-01-09 01:45:00,
2013-01-08 17:50:00,46.9,41.1,30.16,SSE,163,0.0,0.0,80,0.00,,,0.00,WeatherCatV1.11B39,2013-01-09 01:50:00,
2013-01-08 17:55:00,46.4,40.6,30.16,SSE,163,0.0,0.0,80,0.00,,,0.00,WeatherCatV1.11B39,2013-01-09 01:55:00,
2013-01-08 18:00:00,46.1,40.3,30.16,SSE,163,0.0,0.0,80,0.00,,,0.00,WeatherCatV1.11B39,2013-01-09 02:00:00,
2013-01-08 18:05:00,45.6,40.1,30.16,SSE,163,0.0,0.0,81,0.00,,,0.00,WeatherCatV1.11B39,2013-01-09 02:05:00,
2013-01-08 18:10:00,45.2,39.7,30.16,SSE,163,0.0,0.0,81,0.00,,,0.00,WeatherCatV1.11B39,2013-01-09 02:10:00,
2013-01-08 18:15:00,44.8,39.7,30.16,SSE,163,0.0,0.0,82,0.00,,,0.00,WeatherCatV1.11B39,2013-01-09 02:15:00,
2013-01-08 18:20:00,44.6,39.8,30.15,SSE,163,0.0,0.0,83,0.00,,,0.00,WeatherCatV1.11B39,2013-01-09 02:20:00,
2013-01-08 18:25:00,44.3,39.8,30.16,SSE,163,0.0,0.0,84,0.00,,,0.00,WeatherCatV1.11B39,2013-01-09 02:25:00,
2013-01-08 18:30:00,44.1,39.6,30.16,SSE,163,0.0,0.0,84,0.00,,,0.00,WeatherCatV1.11B39,2013-01-09 02:30:00,
2013-01-08 18:35:00,43.7,39.2,30.16,SSE,163,0.0,0.0,84,0.00,,,0.00,WeatherCatV1.11B39,2013-01-09 02:35:00,
2013-01-08 18:40:00,43.5,39.6,30.16,SSE,163,0.0,0.0,86,0.00,,,0.00,WeatherCatV1.11B39,2013-01-09 02:40:00,
2013-01-08 18:45:00,43.4,39.8,30.16,SSE,163,0.0,0.0,87,0.00,,,0.00,WeatherCatV1.11B39,2013-01-09 02:45:00,
2013-01-08 18:50:00,43.1,40.9,30.16,SSE,163,0.0,0.0,92,0.00,,,0.00,WeatherCatV1.11B39,2013-01-09 02:50:00,
2013-01-08 18:55:00,42.8,39.2,30.16,SSE,163,0.0,0.0,87,0.00,,,0.00,WeatherCatV1.11B39,2013-01-09 02:55:00,
2013-01-08 19:00:00,42.5,39.2,30.16,SSE,163,0.0,0.0,88,0.00,,,0.00,WeatherCatV1.11B39,2013-01-09 03:00:00,
2013-01-08 19:05:00,42.3,39.0,30.16,SSE,163,0.0,0.0,88,0.00,,,0.00,WeatherCatV1.11B39,2013-01-09 03:05:00,
2013-01-08 19:10:00,42.1,38.8,30.16,SSE,163,0.0,0.0,88,0.00,,,0.00,WeatherCatV1.11B39,2013-01-09 03:10:00,
2013-01-08 19:15:00,41.9,38.6,30.16,SSE,163,0.0,0.0,88,0.00,,,0.00,WeatherCatV1.11B39,2013-01-09 03:15:00,
2013-01-08 19:20:00,41.7,38.7,30.16,SSE,163,0.0,0.0,89,0.00,,,0.00,WeatherCatV1.11B39,2013-01-09 03:20:00,
2013-01-08 19:25:00,41.6,38.9,30.16,SSE,163,0.0,0.0,90,0.00,,,0.00,WeatherCatV1.11B39,2013-01-09 03:25:00,
2013-01-08 19:30:00,41.6,38.9,30.16,SSE,163,0.0,0.0,90,0.00,,,0.00,WeatherCatV1.11B39,2013-01-09 03:30:00,
2013-01-08 19:35:00,41.6,39.2,30.16,SSE,163,0.0,0.0,91,0.00,,,0.00,WeatherCatV1.11B39,2013-01-09 03:35:00,
2013-01-08 19:40:00,41.6,39.5,30.15,SSE,163,0.0,0.0,92,0.00,,,0.00,WeatherCatV1.11B39,2013-01-09 03:40:00,
2013-01-08 19:45:00,41.5,39.3,30.15,SSE,163,0.0,0.0,92,0.00,,,0.00,WeatherCatV1.11B39,2013-01-09 03:45:00,
2013-01-08 19:50:00,41.4,39.3,30.16,SSE,163,0.0,0.0,92,0.00,,,0.00,WeatherCatV1.11B39,2013-01-09 03:50:00,
2013-01-08 19:55:00,41.2,39.1,30.16,SSE,163,0.0,0.0,92,0.00,,,0.00,WeatherCatV1.11B39,2013-01-09 03:55:00,
2013-01-08 20:00:00,41.0,38.9,30.17,SSE,163,0.0,0.0,92,0.00,,,0.00,WeatherCatV1.11B39,2013-01-09 04:00:00,
2013-01-08 20:05:00,40.9,38.8,30.17,SSE,163,0.0,0.0,92,0.00,,,0.00,WeatherCatV1.11B39,2013-01-09 04:05:00,
2013-01-08 20:10:00,40.9,38.8,30.17,SSE,163,0.0,0.0,92,0.00,,,0.00,WeatherCatV1.11B39,2013-01-09 04:10:00,
2013-01-08 20:15:00,40.7,38.6,30.17,SSE,163,0.0,0.0,92,0.00,,,0.00,WeatherCatV1.11B39,2013-01-09 04:15:00,
2013-01-08 20:20:00,40.6,38.5,30.17,SSE,163,0.0,0.0,92,0.00,,,0.00,WeatherCatV1.11B39,2013-01-09 04:20:00,
2013-01-08 20:25:00,40.4,38.3,30.17,SSE,163,0.0,0.0,92,0.00,,,0.00,WeatherCatV1.11B39,2013-01-09 04:25:00,
2013-01-08 20:30:00,40.1,38.0,30.17,SSE,163,0.0,0.0,92,0.00,,,0.00,WeatherCatV1.11B39,2013-01-09 04:30:00,
2013-01-08 20:35:00,39.8,37.4,30.17,SSE,163,0.0,0.0,91,0.00,,,0.00,WeatherCatV1.11B39,2013-01-09 04:35:00,
2013-01-08 20:40:00,39.6,37.5,30.17,SSE,163,0.0,0.0,92,0.00,,,0.00,WeatherCatV1.11B39,2013-01-09 04:40:00,
2013-01-08 20:45:00,39.3,37.2,30.17,SSE,163,0.0,0.0,92,0.00,,,0.00,WeatherCatV1.11B39,2013-01-09 04:45:00,
2013-01-08 20:50:00,39.2,37.1,30.17,SSE,163,0.0,0.0,92,0.00,,,0.00,WeatherCatV1.11B39,2013-01-09 04:50:00,
2013-01-08 20:55:00,39.0,36.9,30.17,SSE,163,0.0,0.0,92,0.00,,,0.00,WeatherCatV1.11B39,2013-01-09 04:55:00,
2013-01-08 21:00:00,38.9,37.1,30.17,SSE,163,0.0,0.0,93,0.00,,,0.00,WeatherCatV1.11B39,2013-01-09 05:00:00,
2013-01-08 21:05:00,38.9,37.1,30.17,SSE,163,0.0,0.0,93,0.00,,,0.00,WeatherCatV1.11B39,2013-01-09 05:05:00,
2013-01-08 21:10:00,38.9,37.3,30.17,SSE,163,0.0,0.0,94,0.00,,,0.00,WeatherCatV1.11B39,2013-01-09 05:10:00,
2013-01-08 21:15:00,38.9,37.3,30.16,SSE,163,0.0,0.0,94,0.00,,,0.00,WeatherCatV1.11B39,2013-01-09 05:15:00,
2013-01-08 21:20:00,38.8,37.2,30.16,SSE,163,0.0,0.0,94,0.00,,,0.00,WeatherCatV1.11B39,2013-01-09 05:20:00,
2013-01-08 21:25:00,38.8,37.2,30.17,SSE,163,0.0,0.0,94,0.00,,,0.00,WeatherCatV1.11B39,2013-01-09 05:25:00,
2013-01-08 21:30:00,38.6,37.0,30.17,SSE,163,0.0,0.0,94,0.00,,,0.00,WeatherCatV1.11B39,2013-01-09 05:30:00,
2013-01-08 21:35:00,38.4,36.8,30.17,SSE,163,0.0,0.0,94,0.00,,,0.00,WeatherCatV1.11B39,2013-01-09 05:35:00,
2013-01-08 21:40:00,38.2,36.6,30.17,SSE,163,0.0,0.0,94,0.00,,,0.00,WeatherCatV1.11B39,2013-01-09 05:40:00,
2013-01-08 21:45:00,38.2,36.9,30.17,SSE,163,0.0,0.0,95,0.00,,,0.00,WeatherCatV1.11B39,2013-01-09 05:45:00,
2013-01-08 21:50:00,38.3,37.0,30.17,SSE,163,0.0,0.0,95,0.00,,,0.00,WeatherCatV1.11B39,2013-01-09 05:50:00,
2013-01-08 21:55:00,38.5,37.2,30.17,SSE,163,0.0,0.0,95,0.00,,,0.00,WeatherCatV1.11B39,2013-01-09 05:55:00,
2013-01-08 22:00:00,38.5,37.2,30.17,SSE,163,0.0,0.0,95,0.00,,,0.00,WeatherCatV1.11B39,2013-01-09 06:00:00,
2013-01-08 22:05:00,38.4,37.1,30.17,SSE,163,0.0,0.0,95,0.00,,,0.00,WeatherCatV1.11B39,2013-01-09 06:05:00,
2013-01-08 22:10:00,38.3,37.0,30.17,SSE,163,0.0,0.0,95,0.00,,,0.00,WeatherCatV1.11B39,2013-01-09 06:10:00,
2013-01-08 22:15:00,38.2,36.9,30.17,SSE,163,0.0,0.0,95,0.00,,,0.00,WeatherCatV1.11B39,2013-01-09 06:15:00,
2013-01-08 22:20:00,38.1,36.8,30.17,SSE,163,0.0,0.0,95,0.00,,,0.00,WeatherCatV1.11B39,2013-01-09 06:20:00,
2013-01-08 22:25:00,37.9,36.6,30.18,SSE,163,0.0,0.0,95,0.00,,,0.00,WeatherCatV1.11B39,2013-01-09 06:25:00,
2013-01-08 22:30:00,37.6,36.3,30.17,SSE,163,0.0,0.0,95,0.00,,,0.00,WeatherCatV1.11B39,2013-01-09 06:30:00,
2013-01-08 22:35:00,37.3,36.0,30.17,SSE,163,0.0,0.0,95,0.00,,,0.00,WeatherCatV1.11B39,2013-01-09 06:35:00,
2013-01-08 22:40:00,37.0,35.7,30.17,SSE,163,0.0,0.0,95,0.00,,,0.00,WeatherCatV1.11B39,2013-01-09 06:40:00,
2013-01-08 22:45:00,36.7,35.4,30.17,SSE,163,0.0,0.0,95,0.00,,,0.00,WeatherCatV1.11B39,2013-01-09 06:45:00,
2013-01-08 22:50:00,36.5,35.2,30.17,SSE,163,0.0,0.0,95,0.00,,,0.00,WeatherCatV1.11B39,2013-01-09 06:50:00,
2013-01-08 22:55:00,36.2,34.9,30.17,SSE,163,0.0,0.0,95,0.00,,,0.00,WeatherCatV1.11B39,2013-01-09 06:55:00,
2013-01-08 23:00:00,36.0,34.7,30.17,SSE,163,0.0,0.0,95,0.00,,,0.00,WeatherCatV1.11B39,2013-01-09 07:00:00,
2013-01-08 23:05:00,35.8,34.5,30.16,SSE,163,0.0,0.0,95,0.00,,,0.00,WeatherCatV1.11B39,2013-01-09 07:05:00,
2013-01-08 23:10:00,35.7,34.4,30.16,SSE,163,0.0,0.0,95,0.00,,,0.00,WeatherCatV1.11B39,2013-01-09 07:10:00,
2013-01-08 23:15:00,35.5,34.2,30.16,SSE,163,0.0,0.0,95,0.00,,,0.00,WeatherCatV1.11B39,2013-01-09 07:15:00,
2013-01-08 23:20:00,35.4,34.1,30.16,SSE,163,0.0,0.0,95,0.00,,,0.00,WeatherCatV1.11B39,2013-01-09 07:20:00,
2013-01-08 23:25:00,35.3,34.0,30.15,SSE,163,0.0,0.0,95,0.00,,,0.00,WeatherCatV1.11B39,2013-01-09 07:25:00,
2013-01-08 23:30:00,35.3,34.0,30.16,SSE,163,0.0,0.0,95,0.00,,,0.00,WeatherCatV1.11B39,2013-01-09 07:30:00,
2013-01-08 23:35:00,35.5,34.2,30.16,SSE,163,0.0,0.0,95,0.00,,,0.00,WeatherCatV1.11B39,2013-01-09 07:35:00,
2013-01-08 23:40:00,35.5,34.5,30.16,SSE,163,0.0,0.0,96,0.00,,,0.00,WeatherCatV1.11B39,2013-01-09 07:40:00,
2013-01-08 23:45:00,35.4,34.4,30.16,SSE,163,0.0,0.0,96,0.00,,,0.00,WeatherCatV1.11B39,2013-01-09 07:45:00,
2013-01-08 23:50:00,35.3,34.3,30.16,SSE,163,0.0,0.0,96,0.00,,,0.00,WeatherCatV1.11B39,2013-01-09 07:50:00,
2013-01-08 23:55:00,35.3,34.0,30.16,SSE,163,0.0,0.0,95,0.00,,,0.00,WeatherCatV1.11B39,2013-01-09 07:55:00,